createdAt,value
2018-06-22T00:01:37.207Z,2.00
2018-06-22T00:04:05.831Z,2.13
2018-06-22T00:06:34.564Z,2.00
2018-06-22T00:09:03.262Z,2.70
2018-06-22T00:11:31.744Z,2.17
2018-06-22T00:14:00.208Z,2.30
2018-06-22T00:16:28.652Z,2.20
2018-06-22T00:18:57.155Z,2.50
2018-06-22T00:21:25.669Z,2.40
2018-06-22T00:23:54.165Z,2.30
2018-06-22T00:26:22.716Z,2.00
2018-06-22T00:28:51.709Z,2.30
2018-06-22T00:31:20.239Z,2.50
2018-06-22T00:33:48.783Z,2.10
2018-06-22T00:36:17.316Z,2.23
2018-06-22T00:38:45.752Z,2.00
2018-06-22T00:41:14.155Z,2.10
2018-06-22T00:43:42.609Z,2.80
2018-06-22T00:46:11.226Z,2.40
2018-06-22T00:48:39.768Z,2.50
2018-06-22T00:51:08.157Z,2.40
2018-06-22T00:53:47.734Z,2.17
2018-06-22T00:56:16.231Z,2.70
2018-06-22T00:58:44.776Z,2.87
2018-06-22T01:01:13.290Z,2.50
2018-06-22T01:03:41.834Z,2.73
2018-06-22T01:06:10.544Z,2.10
2018-06-22T01:08:38.998Z,2.17
2018-06-22T01:11:07.614Z,2.60
2018-06-22T01:13:36.094Z,2.60
2018-06-22T01:16:04.934Z,2.30
2018-06-22T01:18:33.471Z,2.47
2018-06-22T01:21:01.916Z,2.50
2018-06-22T01:23:30.314Z,2.90
2018-06-22T01:25:58.754Z,2.87
2018-06-22T01:28:27.703Z,3.00
2018-06-22T01:30:56.177Z,2.80
2018-06-22T01:33:24.696Z,2.43
2018-06-22T01:35:53.759Z,1.97
2018-06-22T01:38:22.221Z,2.50
2018-06-22T01:40:50.720Z,2.30
2018-06-22T01:43:20.128Z,2.60
2018-06-22T01:45:48.637Z,2.30
2018-06-22T01:48:17.160Z,2.20
2018-06-22T01:50:45.660Z,2.70
2018-06-22T01:53:14.148Z,2.40
2018-06-22T01:55:48.972Z,2.40
2018-06-22T01:58:17.540Z,2.37
2018-06-22T02:00:46.014Z,2.30
2018-06-22T02:03:14.480Z,2.33
2018-06-22T02:05:42.938Z,2.20
2018-06-22T02:08:11.460Z,2.00
2018-06-22T02:10:40.003Z,2.53
2018-06-22T02:13:08.514Z,2.30
2018-06-22T02:15:37.046Z,2.00
2018-06-22T02:18:05.678Z,2.40
2018-06-22T02:20:34.387Z,2.00
2018-06-22T02:23:02.865Z,2.40
2018-06-22T02:25:31.365Z,2.10
2018-06-22T02:28:00.422Z,2.60
2018-06-22T02:30:28.885Z,2.30
2018-06-22T02:32:57.414Z,2.67
2018-06-22T02:35:26.648Z,2.43
2018-06-22T02:37:55.109Z,2.40
2018-06-22T02:40:23.542Z,1.97
2018-06-22T02:42:52.004Z,2.60
2018-06-22T02:45:20.503Z,1.90
2018-06-22T02:47:49.725Z,3.27
2018-06-22T02:50:18.111Z,2.33
2018-06-22T02:52:46.659Z,2.03
2018-06-22T02:55:15.089Z,2.37
2018-06-22T02:57:43.855Z,1.93
2018-06-22T03:00:12.368Z,2.47
2018-06-22T03:02:40.929Z,2.27
2018-06-22T03:05:09.824Z,2.30
2018-06-22T03:07:38.380Z,2.10
2018-06-22T03:10:07.279Z,2.40
2018-06-22T03:12:35.871Z,2.30
2018-06-22T03:15:04.758Z,2.53
2018-06-22T03:17:33.189Z,2.57
2018-06-22T03:20:01.626Z,2.20
2018-06-22T03:22:30.154Z,2.37
2018-06-22T03:24:58.633Z,2.10
2018-06-22T03:27:27.058Z,2.40
2018-06-22T03:29:55.668Z,2.20
2018-06-22T03:32:24.093Z,3.10
2018-06-22T03:34:52.594Z,2.30
2018-06-22T03:37:21.395Z,3.00
2018-06-22T03:39:49.824Z,2.63
2018-06-22T03:42:18.274Z,2.40
2018-06-22T03:44:46.747Z,2.37
2018-06-22T03:47:15.210Z,2.60
2018-06-22T03:49:43.648Z,2.40
2018-06-22T03:52:12.289Z,2.23
2018-06-22T03:54:40.729Z,2.27
2018-06-22T03:57:09.214Z,2.27
2018-06-22T03:59:38.101Z,2.27
2018-06-22T04:02:07.363Z,2.80
2018-06-22T04:04:35.837Z,2.93
2018-06-22T04:07:04.591Z,2.67
2018-06-22T04:09:33.129Z,2.87
2018-06-22T04:12:02.931Z,2.67
2018-06-22T04:14:31.479Z,5.40
2018-06-22T04:17:00.014Z,2.50
2018-06-22T04:19:28.555Z,3.07
2018-06-22T04:21:57.050Z,3.40
2018-06-22T04:24:25.523Z,2.67
2018-06-22T04:26:54.510Z,2.33
2018-06-22T04:29:22.963Z,2.93
2018-06-22T04:31:51.470Z,2.60
2018-06-22T04:34:20.651Z,2.73
2018-06-22T04:36:49.181Z,2.80
2018-06-22T04:39:18.816Z,2.93
2018-06-22T04:41:47.410Z,2.77
2018-06-22T04:44:16.839Z,2.43
2018-06-22T04:46:45.414Z,2.40
2018-06-22T04:49:14.596Z,2.60
2018-06-22T04:51:43.103Z,2.73
2018-06-22T04:54:12.096Z,2.80
2018-06-22T04:56:40.661Z,2.80
2018-06-22T04:59:09.166Z,2.73
2018-06-22T05:01:37.760Z,3.03
2018-06-22T05:04:06.401Z,3.00
2018-06-22T05:06:34.858Z,2.33
2018-06-22T05:09:03.565Z,3.30
2018-06-22T05:11:31.989Z,3.17
2018-06-22T05:14:00.639Z,3.20
2018-06-22T05:16:29.077Z,2.87
2018-06-22T05:18:57.833Z,3.30
2018-06-22T05:21:26.259Z,3.50
2018-06-22T05:23:54.771Z,3.63
2018-06-22T05:26:23.722Z,2.93
2018-06-22T05:28:52.218Z,3.40
2018-06-22T05:31:20.700Z,2.60
2018-06-22T05:33:49.297Z,4.33
2018-06-22T05:36:17.722Z,4.20
2018-06-22T05:38:46.169Z,3.90
2018-06-22T05:41:14.897Z,3.77
2018-06-22T05:43:43.381Z,3.73
2018-06-22T05:46:12.460Z,3.40
2018-06-22T05:48:40.919Z,3.40
2018-06-22T05:51:09.349Z,3.20
2018-06-22T05:53:38.026Z,3.40
2018-06-22T05:56:06.500Z,3.43
2018-06-22T05:58:35.072Z,3.83
2018-06-22T06:01:03.579Z,3.27
2018-06-22T06:03:32.180Z,3.17
2018-06-22T06:06:00.750Z,3.13
2018-06-22T06:08:29.206Z,2.80
2018-06-22T06:10:57.770Z,3.23
2018-06-22T06:13:26.252Z,3.57
2018-06-22T06:15:54.750Z,3.00
2018-06-22T06:18:23.212Z,2.77
2018-06-22T06:20:51.709Z,2.73
2018-06-22T06:23:20.159Z,2.43
2018-06-22T06:25:49.280Z,2.47
2018-06-22T06:28:17.692Z,2.40
2018-06-22T06:30:46.214Z,2.67
2018-06-22T06:33:14.668Z,2.20
2018-06-22T06:35:43.146Z,2.17
2018-06-22T06:38:11.602Z,1.80
2018-06-22T06:40:40.096Z,1.93
2018-06-22T06:43:08.613Z,1.70
2018-06-22T06:45:37.121Z,2.20
2018-06-22T06:48:05.648Z,2.00
2018-06-22T06:50:34.204Z,2.40
2018-06-22T06:53:02.743Z,2.20
2018-06-22T06:55:31.499Z,1.97
2018-06-22T06:58:00.045Z,1.63
2018-06-22T07:00:28.574Z,1.77
2018-06-22T07:02:57.093Z,1.60
2018-06-22T07:05:25.593Z,2.43
2018-06-22T07:07:54.423Z,1.57
2018-06-22T07:10:22.896Z,1.73
2018-06-22T07:12:51.322Z,1.60
2018-06-22T07:15:19.849Z,1.80
2018-06-22T07:17:48.376Z,1.60
2018-06-22T07:20:17.000Z,2.20
2018-06-22T07:22:45.622Z,2.63
2018-06-22T07:25:14.139Z,1.70
2018-06-22T07:27:42.640Z,2.20
2018-06-22T07:30:11.199Z,1.70
2018-06-22T07:32:39.834Z,2.03
2018-06-22T07:35:08.933Z,1.67
2018-06-22T07:37:37.494Z,1.50
2018-06-22T07:40:05.995Z,1.90
2018-06-22T07:42:34.505Z,2.37
2018-06-22T07:45:03.066Z,1.60
2018-06-22T07:47:31.668Z,1.60
2018-06-22T07:50:00.106Z,1.70
2018-06-22T07:52:28.690Z,1.50
2018-06-22T07:54:57.173Z,2.20
2018-06-22T07:57:25.712Z,2.23
2018-06-22T07:59:54.182Z,2.30
2018-06-22T08:02:22.630Z,2.10
2018-06-22T08:04:51.240Z,1.50
2018-06-22T08:07:19.724Z,1.60
2018-06-22T08:09:48.508Z,1.70
2018-06-22T08:12:17.026Z,1.60
2018-06-22T08:14:45.637Z,1.80
2018-06-22T08:17:14.087Z,1.77
2018-06-22T08:19:42.579Z,1.70
2018-06-22T08:22:11.107Z,1.80
2018-06-22T08:24:39.642Z,1.90
2018-06-22T08:27:08.129Z,2.00
2018-06-22T08:29:36.823Z,2.00
2018-06-22T08:32:05.398Z,1.43
2018-06-22T08:34:33.888Z,1.70
2018-06-22T08:37:02.712Z,1.47
2018-06-22T08:39:31.195Z,1.97
2018-06-22T08:42:00.535Z,1.37
2018-06-22T08:44:29.154Z,1.27
2018-06-22T08:46:57.561Z,1.40
2018-06-22T08:49:26.127Z,1.50
2018-06-22T08:51:54.706Z,1.47
2018-06-22T08:54:23.358Z,1.60
2018-06-22T08:56:51.888Z,1.80
2018-06-22T08:59:20.557Z,1.23
2018-06-22T09:01:49.098Z,1.20
2018-06-22T09:04:20.611Z,1.50
2018-06-22T09:06:49.173Z,1.67
2018-06-22T09:09:17.722Z,1.20
2018-06-22T09:11:46.328Z,1.40
2018-06-22T09:14:14.900Z,1.40
2018-06-22T09:16:43.442Z,1.77
2018-06-22T09:19:11.908Z,1.87
2018-06-22T09:21:40.734Z,1.23
2018-06-22T09:24:09.254Z,1.30
2018-06-22T09:26:37.708Z,1.50
2018-06-22T09:29:06.328Z,1.20
2018-06-22T09:31:34.910Z,1.60
2018-06-22T09:34:03.620Z,1.20
2018-06-22T09:36:32.395Z,1.30
2018-06-22T09:39:00.873Z,1.60
2018-06-22T09:41:29.478Z,1.43
2018-06-22T09:43:57.904Z,1.57
2018-06-22T09:46:26.365Z,1.50
2018-06-22T09:48:54.919Z,1.27
2018-06-22T09:51:23.412Z,1.67
2018-06-22T09:53:51.942Z,2.50
2018-06-22T09:56:20.448Z,1.60
2018-06-22T09:58:48.928Z,1.67
2018-06-22T10:01:17.538Z,1.70
2018-06-22T10:03:46.020Z,1.50
2018-06-22T10:06:14.604Z,1.60
2018-06-22T10:08:43.255Z,1.80
2018-06-22T10:11:11.835Z,1.80
2018-06-22T10:13:40.404Z,1.70
2018-06-22T10:16:09.017Z,1.60
2018-06-22T10:18:37.624Z,1.80
2018-06-22T10:21:06.147Z,1.47
2018-06-22T10:23:34.649Z,1.33
2018-06-22T10:26:03.230Z,1.70
2018-06-22T10:28:31.800Z,1.20
2018-06-22T10:31:00.291Z,1.50
2018-06-22T10:33:28.849Z,1.40
2018-06-22T10:35:57.312Z,1.50
2018-06-22T10:38:25.761Z,1.40
2018-06-22T10:40:54.432Z,1.97
2018-06-22T10:43:22.938Z,1.60
2018-06-22T10:45:52.053Z,1.40
2018-06-22T10:48:20.585Z,1.40
2018-06-22T10:50:49.061Z,1.70
2018-06-22T10:53:17.776Z,1.63
2018-06-22T10:55:46.199Z,1.67
2018-06-22T10:58:14.686Z,1.50
2018-06-22T11:00:43.200Z,1.57
2018-06-22T11:03:11.785Z,1.60
2018-06-22T11:05:40.322Z,1.90
2018-06-22T11:08:08.776Z,1.60
2018-06-22T11:10:37.414Z,1.93
2018-06-22T11:13:05.995Z,1.77
2018-06-22T11:15:34.665Z,1.37
2018-06-22T11:18:03.160Z,1.67
2018-06-22T11:20:31.644Z,1.60
2018-06-22T11:23:00.205Z,1.50
2018-06-22T11:25:28.706Z,1.37
2018-06-22T11:27:57.212Z,1.60
2018-06-22T11:30:25.896Z,1.73
2018-06-22T11:32:54.397Z,2.10
2018-06-22T11:35:23.061Z,2.00
2018-06-22T11:37:51.656Z,1.87
2018-06-22T11:40:20.282Z,1.80
2018-06-22T11:42:48.779Z,1.87
2018-06-22T11:45:17.273Z,1.70
2018-06-22T11:47:46.829Z,1.70
2018-06-22T11:50:15.392Z,1.90
2018-06-22T11:52:43.881Z,2.00
2018-06-22T11:55:12.259Z,1.93
2018-06-22T11:57:40.802Z,2.40
2018-06-22T12:00:09.394Z,2.30
2018-06-22T12:02:37.944Z,2.00
2018-06-22T12:05:06.483Z,2.00
2018-06-22T12:07:34.984Z,2.00
2018-06-22T12:10:03.700Z,2.00
2018-06-22T12:12:32.266Z,1.90
2018-06-22T12:15:00.896Z,1.90
2018-06-22T12:17:29.458Z,1.77
2018-06-22T12:19:58.068Z,1.70
2018-06-22T12:22:27.287Z,1.67
2018-06-22T12:24:55.809Z,1.80
2018-06-22T12:27:24.460Z,2.03
2018-06-22T12:29:52.991Z,1.80
2018-06-22T12:32:21.518Z,1.83
2018-06-22T12:34:50.600Z,1.90
2018-06-22T12:37:19.111Z,2.17
2018-06-22T12:39:47.554Z,1.80
2018-06-22T12:42:16.174Z,1.70
2018-06-22T12:44:45.000Z,1.53
2018-06-22T12:47:13.632Z,1.83
2018-06-22T12:49:42.856Z,2.00
2018-06-22T12:52:11.342Z,1.80
2018-06-22T12:54:39.896Z,1.90
2018-06-22T12:57:08.418Z,1.50
2018-06-22T12:59:37.177Z,1.73
2018-06-22T13:02:05.829Z,1.83
2018-06-22T13:04:34.336Z,1.73
2018-06-22T13:07:02.850Z,1.70
2018-06-22T13:09:31.439Z,1.87
2018-06-22T13:12:00.629Z,1.80
2018-06-22T13:14:29.189Z,1.90
2018-06-22T13:16:58.181Z,2.00
2018-06-22T13:19:26.683Z,1.77
2018-06-22T13:21:56.106Z,1.83
2018-06-22T13:24:25.700Z,1.63
2018-06-22T13:26:54.569Z,2.00
2018-06-22T13:29:23.459Z,2.00
2018-06-22T13:31:51.910Z,1.90
2018-06-22T13:34:20.435Z,1.90
2018-06-22T13:36:49.147Z,1.90
2018-06-22T13:39:19.073Z,1.57
2018-06-22T13:41:48.634Z,1.73
2018-06-22T13:44:17.863Z,1.73
2018-06-22T13:46:46.505Z,1.90
2018-06-22T13:49:14.982Z,1.63
2018-06-22T13:51:43.614Z,1.80
2018-06-22T13:54:12.149Z,1.77
2018-06-22T13:56:41.050Z,1.60
2018-06-22T13:59:09.614Z,2.20
2018-06-22T14:01:38.672Z,1.70
2018-06-22T14:05:10.254Z,1.93
2018-06-22T14:07:38.770Z,2.10
2018-06-22T14:10:07.364Z,1.63
2018-06-22T14:12:35.870Z,1.90
2018-06-22T14:15:04.438Z,2.40
2018-06-22T14:17:33.086Z,2.47
2018-06-22T14:20:01.679Z,1.70
2018-06-22T14:22:30.277Z,1.70
2018-06-22T14:24:58.747Z,2.30
2018-06-22T14:27:28.023Z,1.80
2018-06-22T14:29:56.556Z,2.20
2018-06-22T14:32:25.128Z,1.97
2018-06-22T14:34:53.826Z,1.80
2018-06-22T14:37:22.357Z,1.80
2018-06-22T14:39:51.000Z,1.90
2018-06-22T14:42:19.489Z,2.50
2018-06-22T14:44:47.985Z,1.57
2018-06-22T14:47:16.654Z,1.97
2018-06-22T14:49:46.836Z,1.80
2018-06-22T14:52:15.459Z,1.77
2018-06-22T14:54:49.316Z,1.53
2018-06-22T14:57:23.340Z,1.83
2018-06-22T14:59:56.985Z,1.63
2018-06-22T15:02:30.932Z,1.40
2018-06-22T15:05:04.747Z,2.00
2018-06-22T15:07:39.620Z,2.20
2018-06-22T15:10:09.581Z,1.70
2018-06-22T15:12:43.777Z,1.90
2018-06-22T15:15:15.814Z,1.77
2018-06-22T15:17:52.824Z,2.00
2018-06-22T15:20:29.265Z,2.20
2018-06-22T15:23:00.962Z,2.17
2018-06-22T15:25:32.760Z,2.10
2018-06-22T15:28:03.799Z,2.37
2018-06-22T15:30:33.975Z,2.10
2018-06-22T15:33:06.232Z,1.90
2018-06-22T15:35:41.834Z,1.60
2018-06-22T15:38:16.468Z,1.77
2018-06-22T15:40:51.533Z,1.93
2018-06-22T15:43:26.289Z,1.67
2018-06-22T15:46:01.201Z,1.90
2018-06-22T15:48:35.740Z,1.30
2018-06-22T15:51:09.557Z,1.93
2018-06-22T15:53:43.200Z,2.00
2018-06-22T15:56:11.772Z,1.57
2018-06-22T15:58:40.421Z,1.57
2018-06-22T16:01:09.010Z,1.43
2018-06-22T16:03:42.735Z,1.90
2018-06-22T16:06:11.221Z,2.50
2018-06-22T16:08:39.808Z,1.80
2018-06-22T16:11:08.530Z,1.57
2018-06-22T16:13:37.217Z,1.73
2018-06-22T16:16:11.085Z,1.60
2018-06-22T16:18:44.822Z,1.90
2018-06-22T16:21:18.641Z,2.10
2018-06-22T16:23:52.629Z,1.50
2018-06-22T16:26:26.452Z,1.70
2018-06-22T16:28:55.002Z,1.60
2018-06-22T16:31:23.510Z,1.70
2018-06-22T16:33:55.950Z,1.80
2018-06-22T16:36:25.493Z,1.73
2018-06-22T16:38:54.367Z,1.70
2018-06-22T16:41:23.026Z,2.10
2018-06-22T16:43:51.554Z,2.17
2018-06-22T16:46:20.135Z,1.87
2018-06-22T16:48:48.657Z,1.90
2018-06-22T16:51:17.249Z,1.83
2018-06-22T16:53:45.749Z,1.63
2018-06-22T16:56:14.285Z,1.90
2018-06-22T16:58:42.738Z,1.90
2018-06-22T17:01:12.152Z,1.90
2018-06-22T17:03:40.668Z,1.70
2018-06-22T17:06:09.296Z,1.97
2018-06-22T17:08:42.857Z,2.30
2018-06-22T17:11:16.405Z,2.07
2018-06-22T17:13:50.073Z,1.90
2018-06-22T17:16:24.128Z,2.00
2018-06-22T17:18:55.403Z,2.00
2018-06-22T17:21:24.011Z,1.87
2018-06-22T17:23:52.847Z,1.93
2018-06-22T17:26:21.282Z,2.17
2018-06-22T17:28:49.847Z,1.97
2018-06-22T17:31:18.474Z,1.73
2018-06-22T17:33:47.078Z,2.00
2018-06-22T17:36:15.739Z,2.20
2018-06-22T17:38:44.316Z,1.90
2018-06-22T17:41:13.410Z,2.33
2018-06-22T17:43:41.927Z,2.33
2018-06-22T17:46:10.762Z,1.70
2018-06-22T17:48:39.278Z,2.23
2018-06-22T17:51:07.756Z,2.17
2018-06-22T17:53:36.406Z,2.23
2018-06-22T17:56:05.030Z,1.80
2018-06-22T17:58:34.539Z,1.70
2018-06-22T18:01:08.360Z,2.00
2018-06-22T18:03:42.167Z,2.30
2018-06-22T18:06:16.056Z,1.90
2018-06-22T18:08:46.860Z,1.70
2018-06-22T18:11:20.657Z,1.63
2018-06-22T18:13:49.151Z,2.60
2018-06-22T18:16:17.616Z,2.70
2018-06-22T18:18:46.192Z,2.30
2018-06-22T18:21:14.682Z,2.13
2018-06-22T18:23:43.565Z,2.10
2018-06-22T18:26:12.087Z,1.90
2018-06-22T18:28:40.575Z,2.20
2018-06-22T18:31:09.297Z,2.00
2018-06-22T18:33:37.807Z,2.93
2018-06-22T18:36:06.495Z,2.00
2018-06-22T18:38:35.040Z,2.33
2018-06-22T18:41:03.662Z,2.00
2018-06-22T18:43:37.442Z,3.03
2018-06-22T18:46:05.989Z,2.07
2018-06-22T18:48:34.494Z,1.97
2018-06-22T18:51:03.204Z,1.80
2018-06-22T18:53:37.116Z,1.67
2018-06-22T18:57:09.391Z,1.70
2018-06-22T18:59:41.044Z,2.00
2018-06-22T19:02:14.778Z,1.70
2018-06-22T19:04:43.458Z,1.80
2018-06-22T19:07:12.070Z,2.20
2018-06-22T19:09:40.647Z,1.70
2018-06-22T19:12:09.238Z,1.97
2018-06-22T19:14:37.708Z,2.77
2018-06-22T19:17:06.607Z,2.40
2018-06-22T19:19:35.194Z,2.20
2018-06-22T19:22:03.698Z,2.40
2018-06-22T19:24:32.368Z,2.33
2018-06-22T19:27:00.873Z,2.13
2018-06-22T19:29:29.587Z,1.87
2018-06-22T19:31:58.190Z,2.07
2018-06-22T19:34:31.994Z,2.13
2018-06-22T19:37:00.619Z,2.00
2018-06-22T19:39:29.193Z,2.20
2018-06-22T19:44:57.606Z,2.27
2018-06-22T19:47:31.352Z,2.40
2018-06-22T19:50:05.093Z,2.63
2018-06-22T19:52:39.075Z,2.20
2018-06-22T19:55:07.743Z,2.33
2018-06-22T19:57:36.376Z,2.40
2018-06-22T20:00:09.137Z,2.40
2018-06-22T20:02:37.688Z,2.57
2018-06-22T20:05:06.836Z,2.77
2018-06-22T20:07:35.491Z,2.93
2018-06-22T20:10:04.852Z,3.20
2018-06-22T20:12:33.385Z,3.57
2018-06-22T20:15:01.851Z,4.50
2018-06-22T20:17:30.460Z,5.00
2018-06-22T20:19:59.001Z,3.40
2018-06-22T20:22:27.530Z,3.53
2018-06-22T20:25:01.504Z,3.10
2018-06-22T20:27:30.072Z,3.67
2018-06-22T20:29:58.534Z,3.60
2018-06-22T20:32:27.093Z,3.10
2018-06-22T20:35:00.754Z,2.80
2018-06-22T20:37:34.463Z,4.33
2018-06-22T20:40:08.365Z,2.90
2018-06-22T20:42:42.159Z,3.77
2018-06-22T20:45:15.993Z,9.67
2018-06-22T20:47:49.894Z,5.53
2018-06-22T20:50:23.717Z,7.67
2018-06-22T20:52:52.231Z,6.80
2018-06-22T20:55:20.776Z,6.30
2018-06-22T20:57:49.281Z,5.40
2018-06-22T21:00:18.052Z,4.60
2018-06-22T21:02:46.595Z,4.67
2018-06-22T21:05:15.082Z,6.03
2018-06-22T21:07:43.575Z,8.60
2018-06-22T21:10:12.741Z,10.60
2018-06-22T21:12:41.565Z,9.60
2018-06-22T21:15:10.718Z,4.70
2018-06-22T21:17:39.242Z,3.77
2018-06-22T21:20:07.734Z,3.50
2018-06-22T21:22:36.287Z,4.13
2018-06-22T21:25:04.864Z,4.23
2018-06-22T21:27:38.533Z,4.80
2018-06-22T21:30:13.907Z,4.37
2018-06-22T21:32:54.416Z,3.93
2018-06-22T21:35:28.206Z,4.13
2018-06-22T21:38:01.906Z,4.50
2018-06-22T21:40:30.472Z,4.50
2018-06-22T21:42:59.021Z,4.43
2018-06-22T21:45:27.627Z,4.30
2018-06-22T21:47:56.283Z,4.50
2018-06-22T21:50:24.872Z,4.33
2018-06-22T21:52:53.371Z,4.80
2018-06-22T21:55:21.911Z,4.90
2018-06-22T21:57:50.508Z,4.57
2018-06-22T22:00:30.719Z,4.10
2018-06-22T22:03:00.367Z,3.73
2018-06-22T22:05:29.600Z,3.87
2018-06-22T22:07:58.737Z,4.00
2018-06-22T22:10:32.618Z,4.20
2018-06-22T22:13:01.233Z,4.27
2018-06-22T22:15:30.090Z,4.30
2018-06-22T22:17:59.332Z,4.00
2018-06-22T22:20:28.005Z,3.93
2018-06-22T22:22:56.581Z,3.83
2018-06-22T22:25:25.134Z,3.73
2018-06-22T22:27:59.045Z,4.10
2018-06-22T22:30:29.182Z,4.10
2018-06-22T22:32:57.723Z,3.90
2018-06-22T22:35:26.685Z,5.13
2018-06-22T22:37:55.230Z,4.03
2018-06-22T22:40:24.393Z,4.17
2018-06-22T22:42:53.548Z,3.97
2018-06-22T22:45:22.154Z,4.60
2018-06-22T22:47:50.778Z,4.30
2018-06-22T22:50:19.492Z,4.07
2018-06-22T22:52:48.155Z,4.23
2018-06-22T22:55:17.390Z,4.10
2018-06-22T22:57:49.655Z,3.93
2018-06-22T23:00:18.306Z,3.97
2018-06-22T23:02:46.982Z,4.23
2018-06-22T23:05:15.480Z,4.20
2018-06-22T23:07:44.185Z,4.20
2018-06-22T23:10:12.689Z,3.90
2018-06-22T23:12:41.555Z,4.43
2018-06-22T23:15:11.432Z,3.70
2018-06-22T23:17:40.063Z,4.43
2018-06-22T23:20:09.238Z,4.07
2018-06-22T23:22:48.854Z,3.93
2018-06-22T23:25:17.314Z,4.40
2018-06-22T23:27:45.909Z,4.40
2018-06-22T23:30:14.505Z,5.67
2018-06-22T23:32:43.139Z,4.93
2018-06-22T23:35:12.351Z,6.30
2018-06-22T23:37:40.926Z,6.30
2018-06-22T23:40:10.242Z,7.70
2018-06-22T23:42:38.925Z,13.30
2018-06-22T23:45:07.481Z,14.60
2018-06-22T23:47:36.008Z,12.20
2018-06-22T23:50:04.531Z,12.67
2018-06-22T23:52:33.009Z,12.33
2018-06-22T23:55:01.608Z,13.03
2018-06-22T23:57:30.052Z,10.60
2018-06-22T23:59:59.149Z,10.40
